Time;durP1;ratioP1;P1;durP2;ratioP2;P2;SDS_P1;SDS_P2;PMS_P1;PMS_P2;Temp;Humidity;BMP_temperature;BMP_pressure;BME280_temperature;BME280_humidity;BME280_pressure;Samples;Min_cycle;Max_cycle;Signal;HPM_P1;HPM_P2
2021/12/06 00:01:35;;;;;;;34.13;15.93;;;;;;;3.30;100.00;101118.16;5013072;28;20033;-65
2021/12/06 00:04:26;;;;;;;28.40;13.95;;;;;;;3.29;100.00;101120.84;5019721;28;20533;-65
2021/12/06 00:06:54;;;;;;;28.52;14.00;;;;;;;3.28;100.00;101127.09;5013528;28;20056;-65
2021/12/06 00:09:22;;;;;;;28.23;14.27;;;;;;;3.32;100.00;101134.00;5019700;28;20017;-65
2021/12/06 00:11:50;;;;;;;30.70;15.05;;;;;;;3.15;100.00;101134.72;5014045;28;20018;-64
2021/12/06 00:14:16;;;;;;;29.17;14.23;;;;;;;3.23;100.00;101139.69;5017202;28;20038;-65
2021/12/06 00:16:42;;;;;;;29.35;15.38;;;;;;;3.26;100.00;101142.22;5015936;28;20159;-65
2021/12/06 00:19:07;;;;;;;28.73;15.15;;;;;;;3.21;100.00;101157.47;5020158;28;20052;-64
2021/12/06 00:21:33;;;;;;;34.72;16.02;;;;;;;3.17;100.00;101151.44;5015764;28;20026;-65
2021/12/06 00:23:58;;;;;;;31.38;15.63;;;;;;;3.18;100.00;101155.81;5018180;28;20022;-64
2021/12/06 00:26:24;;;;;;;29.58;14.77;;;;;;;3.20;100.00;101153.97;5020851;28;20050;-65
2021/12/06 00:28:56;;;;;;;31.73;16.02;;;;;;;3.02;100.00;101139.66;5020212;28;20030;-65
2021/12/06 00:31:22;;;;;;;32.53;16.23;;;;;;;3.12;100.00;101154.28;5022791;28;20071;-65
2021/12/06 00:33:53;;;;;;;28.83;14.30;;;;;;;3.13;100.00;101153.38;5018771;28;20106;-65
2021/12/06 00:36:27;;;;;;;27.20;14.95;;;;;;;3.12;100.00;101156.94;5027349;28;20029;-65
2021/12/06 00:38:53;;;;;;;30.53;14.97;;;;;;;2.99;100.00;101138.00;5018824;28;20033;-65
2021/12/06 00:41:18;;;;;;;29.92;15.15;;;;;;;3.14;100.00;101160.41;5019071;28;20109;-64
2021/12/06 00:43:43;;;;;;;35.15;16.70;;;;;;;3.16;100.00;101165.63;5012083;28;20105;-64
2021/12/06 00:46:09;;;;;;;33.20;15.00;;;;;;;3.19;100.00;101169.94;5010745;28;20113;-65
2021/12/06 00:48:34;;;;;;;34.72;16.35;;;;;;;3.19;100.00;101173.47;5015722;28;20051;-65
2021/12/06 00:51:00;;;;;;;29.33;14.85;;;;;;;3.10;100.00;101164.09;5022024;28;20107;-65
2021/12/06 00:53:25;;;;;;;29.63;14.02;;;;;;;3.18;100.00;101181.50;5017720;28;20029;-65
2021/12/06 00:55:51;;;;;;;30.70;15.32;;;;;;;3.05;100.00;101168.72;5027109;28;20037;-65
2021/12/06 00:58:16;;;;;;;30.55;14.55;;;;;;;3.14;100.00;101186.94;5016205;28;20026;-65
2021/12/06 01:00:47;;;;;;;33.15;16.08;;;;;;;3.15;100.00;101188.66;5025493;28;20543;-64
2021/12/06 01:03:27;;;;;;;31.10;16.05;;;;;;;3.11;100.00;101189.72;5014800;28;20017;-65
2021/12/06 01:05:53;;;;;;;30.67;16.15;;;;;;;2.99;100.00;101176.94;5017296;28;20033;-65
2021/12/06 01:08:19;;;;;;;30.85;14.35;;;;;;;3.12;100.00;101203.81;5018292;28;20083;-65
2021/12/06 01:10:46;;;;;;;36.75;15.93;;;;;;;3.14;100.00;101212.59;5018823;28;20033;-70
2021/12/06 01:13:11;;;;;;;33.95;16.48;;;;;;;3.12;100.00;101217.09;5018622;28;20028;-70
2021/12/06 01:15:37;;;;;;;35.88;16.50;;;;;;;3.11;100.00;101218.00;5012046;28;20046;-70
2021/12/06 01:18:04;;;;;;;29.70;14.77;;;;;;;3.11;100.00;101218.91;5019625;28;20557;-70
2021/12/06 01:20:34;;;;;;;33.72;15.73;;;;;;;3.02;100.00;101224.56;5011643;28;20029;-70
2021/12/06 01:23:04;;;;;;;30.83;15.00;;;;;;;3.08;100.00;101223.44;5010547;28;20472;-65
2021/12/06 01:25:43;;;;;;;26.63;14.43;;;;;;;3.08;100.00;101232.28;5015198;28;20428;-65
2021/12/06 01:41:23;;;;;;;33.17;16.52;;;;;;;3.09;100.00;101217.22;5012226;28;20625;-70
2021/12/06 01:44:22;;;;;;;37.22;16.52;;;;;;;3.00;100.00;101211.38;5011717;28;20480;-70
2021/12/06 01:46:55;;;;;;;29.67;14.38;;;;;;;3.07;100.00;101232.31;4994200;28;20053;-70
2021/12/06 01:49:22;;;;;;;32.03;15.63;;;;;;;3.07;100.00;101233.22;5005425;28;20056;-70
2021/12/06 01:51:49;;;;;;;34.30;16.63;;;;;;;3.07;100.00;101240.28;5011732;28;20029;-70
2021/12/06 01:54:15;;;;;;;31.63;15.07;;;;;;;3.07;100.00;101248.25;5014291;28;20021;-70
2021/12/06 01:56:42;;;;;;;33.15;16.35;;;;;;;3.06;100.00;101243.84;5013441;28;20387;-70
2021/12/06 01:59:08;;;;;;;37.65;16.02;;;;;;;2.99;100.00;101236.16;5014705;28;20049;-70
2021/12/06 02:01:34;;;;;;;26.90;13.93;;;;;;;2.97;100.00;101231.84;5013143;28;20057;-65
2021/12/06 02:04:00;;;;;;;31.92;15.57;;;;;;;3.02;100.00;101251.09;5018295;28;20044;-70
2021/12/06 02:06:26;;;;;;;32.78;15.77;;;;;;;3.04;100.00;101259.84;5015763;28;20057;-65
2021/12/06 02:08:52;;;;;;;32.47;15.43;;;;;;;3.02;100.00;101251.09;5011107;28;20675;-65
2021/12/06 02:11:17;;;;;;;29.85;14.15;;;;;;;2.99;100.00;101248.56;5013595;28;20048;-70
2021/12/06 02:13:57;;;;;;;30.27;14.10;;;;;;;3.03;100.00;101260.78;5011703;28;20103;-70
2021/12/06 02:16:31;;;;;;;29.42;14.63;;;;;;;3.02;100.00;101259.03;5012960;28;20117;-70
2021/12/06 02:19:02;;;;;;;35.30;14.85;;;;;;;3.02;100.00;101256.41;5012254;28;20103;-70
2021/12/06 02:21:34;;;;;;;33.00;15.75;;;;;;;3.02;100.00;101255.53;5010325;28;20443;-70
2021/12/06 02:24:04;;;;;;;29.63;14.88;;;;;;;3.03;100.00;101255.47;5009703;28;20430;-65
2021/12/06 02:26:30;;;;;;;35.97;15.85;;;;;;;2.92;100.00;101242.63;5015237;28;20809;-65
2021/12/06 02:28:56;;;;;;;34.83;16.30;;;;;;;3.04;100.00;101259.00;5009335;28;20030;-65
2021/12/06 02:31:22;;;;;;;35.38;16.40;;;;;;;3.03;100.00;101259.94;5010181;28;20438;-65
2021/12/06 02:33:49;;;;;;;35.65;15.80;;;;;;;3.00;100.00;101261.78;5012706;28;20044;-65
2021/12/06 02:36:19;;;;;;;34.30;15.82;;;;;;;2.98;100.00;101260.97;5009471;28;20072;-65
2021/12/06 02:38:45;;;;;;;31.23;14.93;;;;;;;2.96;100.00;101261.94;5007421;28;21141;-70
2021/12/06 02:41:11;;;;;;;34.97;16.08;;;;;;;2.95;100.00;101268.16;5017516;28;20036;-70
2021/12/06 02:43:37;;;;;;;36.97;16.85;;;;;;;2.93;100.00;101267.34;5010769;28;20025;-70
2021/12/06 02:46:04;;;;;;;36.78;17.02;;;;;;;2.93;100.00;101273.53;5014748;28;20076;-70
2021/12/06 02:48:29;;;;;;;30.98;15.05;;;;;;;2.88;100.00;101269.34;5009734;28;20025;-70
2021/12/06 02:50:58;;;;;;;30.02;14.10;;;;;;;2.95;100.00;101281.44;5012215;28;20341;-70
2021/12/06 02:53:25;;;;;;;32.83;15.48;;;;;;;2.97;100.00;101279.56;5012235;28;20040;-70
2021/12/06 02:55:54;;;;;;;32.45;14.68;;;;;;;2.98;100.00;101283.97;5010012;28;20041;-70
2021/12/06 02:59:25;;;;;;;36.92;16.42;;;;;;;2.97;100.00;101283.13;5010707;28;20086;-70
2021/12/06 03:01:27;;;;;;;35.67;15.60;;;;;;;2.97;100.00;101285.75;5000626;28;20871;-65
2021/12/06 03:03:53;;;;;;;36.65;16.52;;;;;;;2.96;100.00;101293.75;5015001;28;20033;-65
2021/12/06 03:06:19;;;;;;;33.92;15.20;;;;;;;2.96;100.00;101299.94;5009509;28;20038;-64
2021/12/06 03:08:46;;;;;;;34.08;15.10;;;;;;;2.96;100.00;101302.59;5012555;28;20084;-65
2021/12/06 03:11:21;;;;;;;32.92;15.82;;;;;;;2.96;100.00;101305.25;5015154;28;20087;-70
2021/12/06 03:13:47;;;;;;;36.63;15.63;;;;;;;2.91;100.00;101287.81;5015996;28;20025;-70
2021/12/06 03:16:13;;;;;;;28.55;14.20;;;;;;;2.93;100.00;101296.53;5008802;28;20568;-70
2021/12/06 03:18:43;;;;;;;29.05;13.93;;;;;;;2.89;100.00;101294.94;5009208;28;20034;-70
2021/12/06 03:21:10;;;;;;;33.13;15.50;;;;;;;2.82;100.00;101287.22;5006248;28;20030;-70
2021/12/06 03:23:35;;;;;;;28.90;13.77;;;;;;;2.89;100.00;101303.75;5008812;28;20034;-70
2021/12/06 03:26:01;;;;;;;26.38;14.63;;;;;;;2.85;100.00;101302.13;5015111;28;20043;-70
2021/12/06 03:28:26;;;;;;;31.98;15.13;;;;;;;2.82;100.00;101299.59;5011510;28;20034;-70
2021/12/06 03:30:51;;;;;;;30.17;14.13;;;;;;;2.80;100.00;101301.44;5008832;28;20482;-70
2021/12/06 03:33:17;;;;;;;32.33;14.07;;;;;;;2.70;100.00;101304.47;5011318;28;20029;-65
2021/12/06 03:35:42;;;;;;;38.42;16.02;;;;;;;2.70;100.00;101314.19;5013591;28;20021;-65
2021/12/06 03:38:08;;;;;;;32.53;15.18;;;;;;;2.67;100.00;101309.88;5019919;28;20032;-65
2021/12/06 03:40:33;;;;;;;30.13;14.10;;;;;;;2.74;100.00;101312.31;5017500;28;20064;-70
2021/12/06 03:42:58;;;;;;;35.55;14.07;;;;;;;2.75;100.00;101316.69;5015821;28;20030;-70
2021/12/06 03:45:24;;;;;;;36.35;15.63;;;;;;;2.77;100.00;101309.53;5016145;28;20575;-70
2021/12/06 03:47:49;;;;;;;27.90;14.25;;;;;;;2.74;100.00;101309.66;5013962;28;20033;-65
2021/12/06 03:50:15;;;;;;;29.17;13.43;;;;;;;2.77;100.00;101309.53;5019925;28;20129;-64
2021/12/06 03:52:40;;;;;;;32.83;15.30;;;;;;;2.81;100.00;101308.47;5011690;28;20113;-65
2021/12/06 03:55:07;;;;;;;30.10;15.55;;;;;;;2.82;100.00;101316.38;5012947;28;20470;-70
2021/12/06 03:57:33;;;;;;;36.83;15.98;;;;;;;2.84;100.00;101319.84;5015287;28;20439;-64
2021/12/06 03:59:58;;;;;;;38.83;16.63;;;;;;;2.80;100.00;101309.41;5023870;28;20031;-65
2021/12/06 04:02:26;;;;;;;30.92;15.05;;;;;;;2.76;100.00;101316.63;5019658;28;20037;-70
2021/12/06 04:04:53;;;;;;;34.70;15.43;;;;;;;2.77;100.00;101318.34;5008643;28;20127;-70
2021/12/06 04:07:18;;;;;;;34.28;16.13;;;;;;;2.78;100.00;101319.22;5017331;28;20057;-70
2021/12/06 04:09:44;;;;;;;30.60;14.32;;;;;;;2.79;100.00;101320.94;5008927;28;20398;-70
2021/12/06 04:12:10;;;;;;;34.63;15.32;;;;;;;2.80;100.00;101323.53;5016024;28;20033;-70
2021/12/06 04:14:37;;;;;;;28.73;14.38;;;;;;;2.81;100.00;101317.31;5012643;28;20138;-70
2021/12/06 04:17:03;;;;;;;33.42;15.43;;;;;;;2.82;100.00;101316.38;5017481;28;20051;-70
2021/12/06 04:19:28;;;;;;;28.80;13.45;;;;;;;2.81;100.00;101313.78;5012491;28;20033;-70
2021/12/06 04:21:54;;;;;;;38.22;16.73;;;;;;;2.79;100.00;101307.66;5017780;28;20069;-70
2021/12/06 04:24:19;;;;;;;40.35;17.90;;;;;;;2.84;100.00;101316.31;5013068;28;20029;-64
2021/12/06 04:26:45;;;;;;;36.65;16.55;;;;;;;2.82;100.00;101323.47;5014497;28;20352;-64
2021/12/06 04:29:11;;;;;;;30.77;15.38;;;;;;;2.81;100.00;101324.38;5008927;28;20045;-64
2021/12/06 04:31:40;;;;;;;44.22;17.20;;;;;;;2.77;100.00;101328.09;5013779;28;20562;-65
2021/12/06 04:34:05;;;;;;;38.25;16.77;;;;;;;2.80;100.00;101334.16;5015715;28;20029;-65
2021/12/06 04:36:30;;;;;;;35.67;15.90;;;;;;;2.81;100.00;101327.91;5015789;28;20045;-65
2021/12/06 04:38:56;;;;;;;32.45;14.32;;;;;;;2.81;100.00;101327.91;5010994;28;20049;-65
2021/12/06 04:41:22;;;;;;;31.83;14.25;;;;;;;2.76;100.00;101327.22;5019323;28;20051;-64
2021/12/06 04:43:47;;;;;;;32.90;15.13;;;;;;;2.77;100.00;101326.31;5016556;28;20033;-65
2021/12/06 04:46:13;;;;;;;31.92;14.32;;;;;;;2.78;100.00;101320.06;5019318;28;20045;-65
2021/12/06 04:48:39;;;;;;;35.85;15.23;;;;;;;2.82;100.00;101328.78;5020479;28;20030;-70
2021/12/06 04:51:04;;;;;;;35.40;16.10;;;;;;;2.79;100.00;101323.56;5019626;28;20388;-70
2021/12/06 04:53:36;;;;;;;39.97;17.17;;;;;;;2.78;100.00;101324.53;5020337;28;20756;-70
2021/12/06 04:56:10;;;;;;;42.42;18.58;;;;;;;2.78;100.00;101332.50;5021021;28;20060;-70
2021/12/06 04:58:50;;;;;;;40.58;17.75;;;;;;;2.78;100.00;101327.19;5012971;28;20713;-70
2021/12/06 05:01:20;;;;;;;39.97;16.75;;;;;;;2.74;100.00;101331.72;5020134;28;20029;-65
2021/12/06 05:03:45;;;;;;;28.88;14.70;;;;;;;2.72;100.00;101332.72;5012967;28;20850;-65
2021/12/06 05:06:19;;;;;;;32.50;14.60;;;;;;;2.53;100.00;101320.97;5021919;28;20033;-65
2021/12/06 05:08:49;;;;;;;37.10;15.18;;;;;;;2.59;100.00;101343.75;5017227;28;20029;-70
2021/12/06 05:11:18;;;;;;;28.70;13.85;;;;;;;2.54;100.00;101348.34;5015233;28;20092;-70
2021/12/06 05:13:45;;;;;;;29.20;14.00;;;;;;;2.51;100.00;101345.84;5011189;28;20398;-65
2021/12/06 05:16:11;;;;;;;34.45;14.07;;;;;;;2.50;100.00;101344.94;5011525;28;20409;-65
2021/12/06 05:18:36;;;;;;;40.55;16.63;;;;;;;2.48;100.00;101346.78;5014220;28;20033;-65
2021/12/06 05:21:02;;;;;;;38.75;15.57;;;;;;;2.51;100.00;101349.34;5014149;28;20033;-65
2021/12/06 05:23:28;;;;;;;41.53;16.73;;;;;;;2.48;100.00;101340.63;5014103;28;20017;-65
2021/12/06 05:25:53;;;;;;;49.35;18.25;;;;;;;2.49;100.00;101347.66;5018844;28;20561;-70
2021/12/06 05:28:23;;;;;;;44.00;18.17;;;;;;;2.47;100.00;101350.34;5017458;28;20394;-70
2021/12/06 05:30:53;;;;;;;36.88;16.35;;;;;;;2.35;100.00;101358.75;5016668;28;20034;-70
2021/12/06 05:33:28;;;;;;;32.75;15.68;;;;;;;2.28;100.00;101362.53;5014257;28;20022;-70
2021/12/06 05:35:53;;;;;;;42.28;12.98;;;;;;;2.12;100.00;101367.50;5010780;28;20654;-70
2021/12/06 05:38:19;;;;;;;37.22;13.32;;;;;;;1.98;100.00;101352.94;5011363;28;20033;-70
2021/12/06 05:40:46;;;;;;;94.68;15.68;;;;;;;2.00;100.00;101366.97;5016329;28;20044;-70
2021/12/06 05:43:12;;;;;;;125.80;16.58;;;;;;;1.93;100.00;101370.75;5013336;28;20048;-70
2021/12/06 05:45:37;;;;;;;100.95;13.93;;;;;;;1.80;100.00;101373.81;5011896;28;20431;-65
2021/12/06 05:48:04;;;;;;;38.08;9.48;;;;;;;1.74;100.00;101374.00;5017306;28;20025;-70
2021/12/06 05:50:29;;;;;;;68.60;13.32;;;;;;;1.72;100.00;101370.53;5013299;28;20026;-70
2021/12/06 05:52:55;;;;;;;85.78;12.45;;;;;;;1.68;100.00;101357.44;5015229;28;20022;-70
2021/12/06 05:55:21;;;;;;;88.45;13.63;;;;;;;1.64;100.00;101357.53;5020236;28;20029;-70
2021/12/06 05:57:47;;;;;;;118.32;15.57;;;;;;;1.58;100.00;101347.19;5012617;28;20068;-65
2021/12/06 06:00:15;;;;;;;111.35;13.52;;;;;;;1.50;100.00;101346.53;5027855;28;20029;-70
2021/12/06 06:02:41;;;;;;;78.75;12.88;;;;;;;1.37;100.00;101343.41;5016248;28;20029;-70
2021/12/06 06:05:08;;;;;;;87.32;11.82;;;;;;;1.27;100.00;101356.06;5017823;28;20033;-70
2021/12/06 06:07:33;;;;;;;109.13;12.15;;;;;;;1.17;100.00;101359.91;5017326;28;20033;-70
2021/12/06 06:09:59;;;;;;;149.23;18.08;;;;;;;1.11;100.00;101360.06;5011295;28;20371;-70
2021/12/06 06:12:24;;;;;;;107.68;15.10;;;;;;;1.01;100.00;101363.00;5014779;28;20035;-65
2021/12/06 06:14:49;;;;;;;71.13;11.30;;;;;;;0.93;100.00;101367.66;5023610;28;20482;-70
2021/12/06 06:17:18;;;;;;;47.03;10.73;;;;;;;0.87;100.00;101379.28;5016441;28;20060;-70
2021/12/06 06:19:48;;;;;;;57.10;11.85;;;;;;;0.77;100.00;101382.22;5020706;28;20278;-70
2021/12/06 06:22:13;;;;;;;54.40;10.20;;;;;;;0.70;100.00;101387.69;5015718;28;20032;-70
2021/12/06 06:24:39;;;;;;;34.85;9.63;;;;;;;0.63;100.00;101390.53;5013670;28;20021;-70
2021/12/06 06:27:05;;;;;;;36.05;8.57;;;;;;;0.53;100.00;101390.78;5013378;28;20030;-70
2021/12/06 06:29:31;;;;;;;36.13;10.80;;;;;;;0.48;100.00;101386.53;5008413;28;20449;-70
2021/12/06 06:31:56;;;;;;;49.17;11.48;;;;;;;0.42;100.00;101399.00;5010611;28;20513;-70
2021/12/06 06:34:22;;;;;;;46.38;9.38;;;;;;;0.35;100.00;101392.13;5012592;28;20414;-69
2021/12/06 06:36:47;;;;;;;41.13;9.05;;;;;;;0.16;100.00;101386.44;5011601;28;20091;-70
2021/12/06 06:39:13;;;;;;;43.40;10.20;;;;;;;0.01;100.00;101371.00;5000102;28;20371;-64
2021/12/06 06:41:38;;;;;;;29.73;9.13;;;;;;;0.02;100.00;101393.88;5009494;28;20046;-65
2021/12/06 06:44:05;;;;;;;49.92;11.65;;;;;;;-0.06;100.00;101386.13;5011623;28;20040;-64
2021/12/06 06:46:31;;;;;;;45.25;11.25;;;;;;;-0.10;100.00;101398.53;5014137;28;20033;-71
2021/12/06 06:48:56;;;;;;;42.38;9.98;;;;;;;-0.08;100.00;101399.34;5010590;28;20033;-70
2021/12/06 06:51:23;;;;;;;27.60;9.70;;;;;;;-0.05;100.00;101398.44;5008420;28;20112;-65
2021/12/06 06:53:48;;;;;;;35.05;11.43;;;;;;;0.03;100.00;101392.97;5013715;28;20128;-70
2021/12/06 06:56:14;;;;;;;45.50;12.02;;;;;;;0.08;100.00;101397.22;5010676;28;20033;-70
2021/12/06 06:58:39;;;;;;;43.88;13.75;;;;;;;0.14;100.00;101396.19;5013442;28;20029;-70
2021/12/06 07:01:04;;;;;;;48.20;15.93;;;;;;;0.28;100.00;101396.72;5011687;28;20120;-70
2021/12/06 07:03:31;;;;;;;98.30;21.60;;;;;;;0.59;100.00;101400.31;5015523;28;20064;-70
2021/12/06 07:05:59;;;;;;;121.13;26.63;;;;;;;0.63;100.00;101411.69;5010143;28;20059;-70
2021/12/06 07:08:24;;;;;;;197.30;29.42;;;;;;;0.77;100.00;101408.66;5013678;28;20079;-70
2021/12/06 07:10:50;;;;;;;144.43;25.20;;;;;;;0.84;100.00;101413.72;5009695;28;20026;-70
2021/12/06 07:13:16;;;;;;;131.13;23.75;;;;;;;0.96;100.00;101416.91;5008201;28;20431;-70
2021/12/06 07:15:41;;;;;;;117.20;22.05;;;;;;;1.10;100.00;101424.47;5010856;28;20108;-70
2021/12/06 07:18:07;;;;;;;160.50;26.85;;;;;;;1.24;100.00;101416.13;5012035;28;20033;-70
2021/12/06 07:20:33;;;;;;;215.30;30.77;;;;;;;1.19;100.00;101414.47;5009591;28;20041;-70
2021/12/06 07:22:59;;;;;;;194.48;28.70;;;;;;;1.30;100.00;101419.47;5010572;28;20061;-70
2021/12/06 07:25:25;;;;;;;187.13;31.80;;;;;;;1.41;100.00;101412.97;5008957;28;20041;-70
2021/12/06 07:27:52;;;;;;;238.73;29.23;;;;;;;1.31;100.00;101409.75;5007957;28;20033;-70
2021/12/06 07:30:18;;;;;;;102.35;23.38;;;;;;;1.40;100.00;101419.19;5007455;28;20029;-65
2021/12/06 07:32:44;;;;;;;118.68;22.80;;;;;;;1.40;100.00;101412.13;5008319;28;20033;-70
2021/12/06 07:35:10;;;;;;;328.92;48.97;;;;;;;1.67;100.00;101438.66;5004923;28;20120;-70
2021/12/06 07:37:36;;;;;;;304.20;42.63;;;;;;;1.59;100.00;101438.03;5014254;28;20108;-70
2021/12/06 07:40:04;;;;;;;331.33;46.28;;;;;;;1.57;100.00;101445.13;5012538;28;20034;-70
2021/12/06 07:42:29;;;;;;;199.77;34.03;;;;;;;1.53;100.00;101439.09;5008255;28;20463;-64
2021/12/06 07:44:55;;;;;;;165.98;30.23;;;;;;;1.57;100.00;101443.38;5011111;28;20036;-64
2021/12/06 07:47:21;;;;;;;120.65;27.42;;;;;;;1.55;100.00;101446.97;5009488;28;20037;-65
2021/12/06 07:49:46;;;;;;;119.50;24.80;;;;;;;1.50;100.00;101447.13;5014043;28;20029;-65
2021/12/06 07:52:12;;;;;;;268.55;43.08;;;;;;;1.53;100.00;101441.72;5009077;28;20036;-64
2021/12/06 07:54:38;;;;;;;173.35;31.60;;;;;;;1.71;100.00;101455.31;5020067;28;20025;-65
2021/12/06 07:57:04;;;;;;;209.90;33.58;;;;;;;1.61;100.00;101450.28;5006831;28;20033;-64
2021/12/06 07:59:30;;;;;;;172.13;29.70;;;;;;;1.48;100.00;101454.22;5015653;28;20041;-65
2021/12/06 08:01:55;;;;;;;163.63;26.98;;;;;;;1.56;100.00;101454.00;5008300;28;20117;-65
2021/12/06 08:04:21;;;;;;;284.45;38.80;;;;;;;1.46;100.00;101437.53;5011860;28;20026;-64
2021/12/06 08:06:47;;;;;;;263.58;37.92;;;;;;;1.43;100.00;101424.38;5011753;28;20037;-65
2021/12/06 08:09:14;;;;;;;168.50;27.63;;;;;;;1.63;100.00;101435.22;5015612;28;20033;-65
2021/12/06 08:11:40;;;;;;;120.22;24.45;;;;;;;1.52;100.00;101439.13;5008713;28;20030;-65
2021/12/06 08:14:06;;;;;;;271.15;45.50;;;;;;;1.64;100.00;101439.59;5009449;28;20065;-65
2021/12/06 08:16:35;;;;;;;204.32;34.55;;;;;;;1.64;100.00;101415.78;5012149;28;20041;-65
2021/12/06 08:19:00;;;;;;;194.50;37.05;;;;;;;1.52;100.00;101420.59;5004576;28;20026;-65
2021/12/06 08:21:27;;;;;;;237.90;36.22;;;;;;;1.69;100.00;101420.94;5010947;28;20075;-65
2021/12/06 08:23:55;;;;;;;242.75;47.00;;;;;;;1.86;100.00;101416.91;5006890;28;20137;-65
2021/12/06 08:26:23;;;;;;;328.92;65.13;;;;;;;1.90;100.00;101416.72;5008368;28;20080;-64
2021/12/06 08:28:50;;;;;;;222.32;36.28;;;;;;;1.62;100.00;101416.75;5013394;28;20048;-65
2021/12/06 08:31:18;;;;;;;243.20;43.03;;;;;;;1.71;100.00;101407.66;5008990;28;20061;-64
2021/12/06 08:33:43;;;;;;;330.92;56.03;;;;;;;1.73;100.00;101413.78;5010786;28;20021;-64
2021/12/06 08:36:10;;;;;;;311.17;45.85;;;;;;;1.50;100.00;101420.66;5013556;28;20407;-65
2021/12/06 08:38:36;;;;;;;257.85;40.08;;;;;;;1.38;100.00;101415.72;5008562;28;20033;-64
2021/12/06 08:41:06;;;;;;;313.35;47.10;;;;;;;1.49;100.00;101421.56;5004971;28;20033;-65
2021/12/06 08:43:32;;;;;;;473.08;72.68;;;;;;;1.67;100.00;101409.53;5012120;28;20041;-64
2021/12/06 08:46:03;;;;;;;448.20;74.38;;;;;;;1.51;100.00;101427.69;5007050;28;20030;-64
2021/12/06 08:48:32;;;;;;;256.02;36.30;;;;;;;1.21;100.00;101438.25;5014630;28;20028;-65
2021/12/06 08:51:01;;;;;;;460.17;68.70;;;;;;;1.38;100.00;101437.75;5014037;28;20459;-64
2021/12/06 08:53:27;;;;;;;453.13;64.80;;;;;;;1.33;100.00;101444.97;5010365;28;20028;-65
2021/12/06 08:55:53;;;;;;;476.02;86.63;;;;;;;1.42;100.00;101454.41;5006454;28;20064;-64
2021/12/06 08:58:19;;;;;;;290.30;37.25;;;;;;;1.07;100.00;101441.28;5007025;28;20029;-64
2021/12/06 09:00:44;;;;;;;451.13;86.30;;;;;;;1.46;100.00;101450.75;5006709;28;20056;-64
2021/12/06 09:03:10;;;;;;;557.33;88.35;;;;;;;1.33;100.00;101460.84;5010184;28;20036;-64
2021/12/06 09:05:41;;;;;;;410.63;58.97;;;;;;;1.24;100.00;101463.75;5010332;28;20038;-64
2021/12/06 09:08:07;;;;;;;355.95;47.95;;;;;;;1.01;100.00;101449.41;5008390;28;20030;-64
2021/12/06 09:10:32;;;;;;;128.48;23.58;;;;;;;1.29;100.00;101457.44;5005511;28;20407;-64
2021/12/06 09:12:58;;;;;;;596.28;74.22;;;;;;;1.09;100.00;101458.00;5006359;28;20022;-65
2021/12/06 09:15:24;;;;;;;502.00;65.93;;;;;;;1.27;100.00;101459.25;5010411;28;20033;-64
2021/12/06 09:17:51;;;;;;;589.95;79.30;;;;;;;1.29;100.00;101454.78;5008420;28;20557;-65
2021/12/06 09:20:18;;;;;;;503.83;61.65;;;;;;;1.37;100.00;101454.56;5012425;28;20758;-64
2021/12/06 09:22:45;;;;;;;406.02;52.75;;;;;;;1.40;100.00;101454.47;5009129;28;20116;-64
2021/12/06 09:25:11;;;;;;;500.90;73.47;;;;;;;1.50;100.00;101450.63;5009945;28;20061;-65
2021/12/06 09:27:38;;;;;;;453.73;52.97;;;;;;;1.34;100.00;101460.78;5008222;28;20120;-65
2021/12/06 09:30:06;;;;;;;419.33;55.90;;;;;;;1.34;100.00;101450.19;5010863;28;20033;-64
2021/12/06 09:32:31;;;;;;;477.63;69.47;;;;;;;1.59;100.00;101468.00;5006442;28;20029;-64
2021/12/06 09:34:58;;;;;;;469.73;67.35;;;;;;;1.58;100.00;101462.75;5001794;28;20064;-64
2021/12/06 09:37:25;;;;;;;357.67;48.30;;;;;;;1.62;100.00;101459.09;5004520;28;20147;-64
2021/12/06 09:39:51;;;;;;;383.27;54.88;;;;;;;1.73;100.00;101453.47;5009926;28;20060;-65
2021/12/06 09:42:18;;;;;;;495.75;62.50;;;;;;;1.73;100.00;101450.84;5004568;28;20149;-64
2021/12/06 09:44:45;;;;;;;371.88;45.50;;;;;;;1.61;100.00;101458.22;5009381;28;20086;-64
2021/12/06 09:47:10;;;;;;;429.83;64.72;;;;;;;1.67;100.00;101462.50;5007468;28;20033;-64
2021/12/06 09:49:36;;;;;;;180.57;27.65;;;;;;;1.63;100.00;101472.28;5004662;28;20072;-64
2021/12/06 09:52:06;;;;;;;308.92;42.97;;;;;;;1.71;100.00;101466.78;5009799;28;20107;-64
2021/12/06 09:54:36;;;;;;;440.70;61.50;;;;;;;1.71;100.00;101465.91;5008771;28;20847;-64
2021/12/06 09:57:06;;;;;;;369.13;50.28;;;;;;;1.63;100.00;101455.56;5005983;28;20033;-64
2021/12/06 09:59:33;;;;;;;357.42;54.85;;;;;;;1.87;100.00;101442.47;5009032;28;20079;-63
2021/12/06 10:02:02;;;;;;;394.83;67.32;;;;;;;2.05;100.00;101441.00;5005165;28;20040;-64
2021/12/06 10:04:31;;;;;;;316.40;44.70;;;;;;;1.93;100.00;101458.16;5008889;28;20040;-65
2021/12/06 10:06:58;;;;;;;369.35;53.65;;;;;;;1.86;100.00;101456.63;5009535;28;20471;-64
2021/12/06 10:09:24;;;;;;;317.27;46.97;;;;;;;1.94;100.00;101460.75;5017742;28;20033;-64
2021/12/06 10:11:51;;;;;;;212.63;30.02;;;;;;;1.81;100.00;101467.34;5008909;28;20029;-65
2021/12/06 10:14:17;;;;;;;463.35;71.28;;;;;;;2.07;100.00;101445.31;5006436;28;20052;-64
2021/12/06 10:16:43;;;;;;;416.08;59.80;;;;;;;2.21;100.00;101444.88;5005166;28;20030;-64
2021/12/06 10:19:09;;;;;;;290.25;34.50;;;;;;;1.62;100.00;101433.50;5005590;28;20041;-64
2021/12/06 10:21:36;;;;;;;414.63;56.08;;;;;;;2.03;100.00;101434.91;5008336;28;20132;-65
2021/12/06 10:24:02;;;;;;;318.55;40.15;;;;;;;1.69;100.00;101431.53;5004807;28;20029;-64
2021/12/06 10:26:30;;;;;;;378.83;58.63;;;;;;;1.70;100.00;101427.09;5011884;28;20061;-64
2021/12/06 10:29:11;;;;;;;420.58;69.57;;;;;;;1.99;100.00;101422.66;5005433;28;20044;-65
2021/12/06 10:31:42;;;;;;;184.38;30.02;;;;;;;1.67;100.00;101432.50;5006230;28;20033;-64
2021/12/06 10:34:08;;;;;;;349.60;45.55;;;;;;;1.81;100.00;101422.34;5006056;28;20037;-64
2021/12/06 10:36:34;;;;;;;352.65;47.25;;;;;;;1.82;100.00;101418.78;5004704;28;20128;-64
2021/12/06 10:39:04;;;;;;;472.63;72.53;;;;;;;2.05;100.00;101404.78;5010126;28;20405;-64
2021/12/06 10:41:32;;;;;;;316.77;45.55;;;;;;;1.84;100.00;101393.13;5008645;28;20049;-64
2021/12/06 10:44:12;;;;;;;348.80;42.92;;;;;;;1.70;100.00;101396.22;5004537;28;20037;-65
2021/12/06 10:46:40;;;;;;;416.35;50.33;;;;;;;1.59;100.00;101400.97;5008301;28;20192;-65
2021/12/06 10:49:07;;;;;;;418.08;69.03;;;;;;;1.65;100.00;101404.28;5009083;28;20065;-64
2021/12/06 10:51:33;;;;;;;474.80;94.72;;;;;;;1.62;100.00;101400.88;5006641;28;20060;-64
2021/12/06 10:54:07;;;;;;;443.35;87.88;;;;;;;1.79;100.00;101409.13;5005371;28;20953;-64
2021/12/06 10:56:41;;;;;;;406.65;73.57;;;;;;;1.70;100.00;101400.63;5009373;28;20032;-64
2021/12/06 10:59:11;;;;;;;424.58;67.93;;;;;;;1.45;100.00;101383.75;5005977;28;20084;-63
2021/12/06 11:01:37;;;;;;;363.92;50.78;;;;;;;1.58;100.00;101389.53;5007123;28;20030;-64
2021/12/06 11:04:05;;;;;;;408.40;68.13;;;;;;;1.48;100.00;101375.69;5005731;28;20029;-64
2021/12/06 11:06:35;;;;;;;497.45;82.75;;;;;;;1.74;100.00;101370.50;5006283;28;20040;-64
2021/12/06 11:09:04;;;;;;;338.67;46.92;;;;;;;1.45;100.00;101356.41;5013947;28;20034;-64
2021/12/06 11:11:43;;;;;;;484.88;77.38;;;;;;;1.83;100.00;101358.72;5008183;28;20888;-64
2021/12/06 11:14:13;;;;;;;455.85;71.40;;;;;;;1.76;100.00;101353.63;5007840;28;20058;-64
2021/12/06 11:16:44;;;;;;;316.63;44.83;;;;;;;1.60;100.00;101347.13;5004797;28;20053;-64
2021/12/06 11:19:12;;;;;;;340.52;52.15;;;;;;;1.74;100.00;101344.88;5008441;28;20120;-65
2021/12/06 11:21:56;;;;;;;357.33;64.32;;;;;;;1.76;100.00;101343.03;5009525;28;20824;-64